Time;durP1;ratioP1;P1;durP2;ratioP2;P2;SDS_P1;SDS_P2;PMS_P1;PMS_P2;Temp;Humidity;BMP_temperature;BMP_pressure;BME280_temperature;BME280_humidity;BME280_pressure;Samples;Min_cycle;Max_cycle;Signal;HPM_P1;HPM_P2
2021/09/07 00:01:14;;;;;;;8.97;4.90;;;;;;;16.23;51.71;96022.63;5051069;28;20979;-74
2021/09/07 00:03:42;;;;;;;8.53;5.03;;;;;;;15.95;52.37;96014.34;5040747;28;20467;-72
2021/09/07 00:06:10;;;;;;;6.53;4.80;;;;;;;16.09;52.79;96010.94;5045528;28;20988;-76
2021/09/07 00:08:39;;;;;;;5.57;4.43;;;;;;;16.11;52.20;96014.13;5042432;28;20483;-76
2021/09/07 00:11:07;;;;;;;8.50;5.33;;;;;;;15.90;52.20;95995.84;5052085;28;20493;-75
2021/09/07 00:13:34;;;;;;;7.30;4.93;;;;;;;16.10;52.49;96011.75;5055209;28;21142;-75
2021/09/07 00:16:02;;;;;;;8.90;4.93;;;;;;;15.97;52.78;95988.47;5060438;28;20530;-74
2021/09/07 00:18:30;;;;;;;8.80;5.40;;;;;;;16.07;52.61;96001.72;5048763;28;20538;-74
2021/09/07 00:20:57;;;;;;;9.13;5.83;;;;;;;15.96;53.27;96005.38;5044281;28;20451;-76
2021/09/07 00:23:24;;;;;;;10.03;6.10;;;;;;;16.03;53.15;96009.38;5051673;28;20457;-74
2021/09/07 00:25:51;;;;;;;10.27;5.53;;;;;;;15.68;54.92;96016.41;5042086;28;20440;-75
2021/09/07 00:28:18;;;;;;;8.80;5.63;;;;;;;15.50;55.04;96022.16;5047154;28;20529;-72
2021/09/07 00:30:46;;;;;;;10.77;6.00;;;;;;;15.57;54.91;96012.13;5051230;28;20529;-73
2021/09/07 00:33:13;;;;;;;9.40;5.77;;;;;;;15.79;54.33;96016.19;5050999;28;20473;-75
2021/09/07 00:35:40;;;;;;;9.17;5.30;;;;;;;15.83;54.12;96005.88;5051380;28;20489;-76
2021/09/07 00:38:09;;;;;;;7.43;5.03;;;;;;;15.88;54.56;96013.81;5051751;28;20455;-73
2021/09/07 00:40:36;;;;;;;9.57;5.23;;;;;;;15.75;54.76;96003.75;5045807;28;20494;-73
2021/09/07 00:43:03;;;;;;;7.67;5.37;;;;;;;15.81;54.78;96018.56;5039012;28;20466;-76
2021/09/07 00:45:30;;;;;;;9.83;5.37;;;;;;;15.73;54.94;96021.72;5053700;28;20454;-74
2021/09/07 00:47:57;;;;;;;6.90;5.00;;;;;;;15.69;54.71;96020.66;5067804;28;20547;-74
2021/09/07 00:50:25;;;;;;;7.80;5.30;;;;;;;15.66;55.11;96013.22;5062644;28;20446;-71
2021/09/07 00:52:54;;;;;;;9.03;5.40;;;;;;;15.76;55.40;96015.91;5052103;28;20439;-72
2021/09/07 00:55:23;;;;;;;7.13;5.30;;;;;;;15.79;54.48;96010.09;5051227;28;20446;-71
2021/09/07 00:57:51;;;;;;;8.80;5.67;;;;;;;15.75;54.87;96019.59;5050923;28;20482;-71
2021/09/07 01:00:18;;;;;;;8.60;5.20;;;;;;;15.64;55.57;96007.41;5051074;28;20899;-70
2021/09/07 01:02:45;;;;;;;8.10;5.43;;;;;;;15.78;54.85;96014.56;5050185;28;20478;-71
2021/09/07 01:05:13;;;;;;;11.00;5.37;;;;;;;15.67;55.00;96012.19;5040372;28;20531;-71
2021/09/07 01:07:40;;;;;;;7.23;5.37;;;;;;;15.35;55.71;95977.16;5032314;28;20965;-71
2021/09/07 01:10:08;;;;;;;7.90;5.27;;;;;;;15.62;56.02;96012.19;5051315;28;20435;-72
2021/09/07 01:12:36;;;;;;;7.60;5.23;;;;;;;15.57;56.23;96006.84;5050007;28;20523;-72
2021/09/07 01:15:07;;;;;;;9.97;5.60;;;;;;;15.32;56.79;95978.47;5044600;28;20479;-71
2021/09/07 01:17:35;;;;;;;6.97;5.27;;;;;;;15.47;56.21;95991.78;5050904;28;20446;-71
2021/09/07 01:20:06;;;;;;;8.23;5.90;;;;;;;15.56;56.35;96000.81;5057579;28;20964;-72
2021/09/07 01:22:33;;;;;;;12.00;6.20;;;;;;;15.47;56.76;96009.47;5041901;28;20451;-72
2021/09/07 01:25:00;;;;;;;9.83;5.83;;;;;;;15.51;56.95;96016.59;5048949;28;20529;-70
2021/09/07 01:27:27;;;;;;;9.17;6.40;;;;;;;15.39;56.95;96007.28;5052688;28;20439;-71
2021/09/07 01:29:54;;;;;;;14.80;7.83;;;;;;;14.97;58.00;96002.06;5051288;28;20439;-71
2021/09/07 01:32:25;;;;;;;12.47;7.47;;;;;;;14.93;58.23;95996.50;5051624;28;20451;-72
2021/09/07 01:34:53;;;;;;;13.83;7.67;;;;;;;15.13;57.98;96007.16;5063656;28;20519;-71
2021/09/07 01:37:20;;;;;;;10.83;7.40;;;;;;;14.89;58.18;95997.28;5055977;28;20443;-71
2021/09/07 01:39:47;;;;;;;11.67;7.90;;;;;;;14.78;58.71;96009.59;5051908;28;20525;-72
2021/09/07 01:42:14;;;;;;;15.07;8.30;;;;;;;14.82;59.36;96005.41;5048750;28;20922;-71
2021/09/07 01:44:43;;;;;;;10.23;7.63;;;;;;;14.74;59.55;96000.63;5040808;28;20799;-73
2021/09/07 01:47:10;;;;;;;13.93;7.83;;;;;;;14.93;58.79;96004.44;5049579;28;20442;-73
2021/09/07 01:49:38;;;;;;;10.03;7.00;;;;;;;15.13;58.05;96007.16;5042371;28;20444;-73
2021/09/07 01:52:13;;;;;;;13.47;8.20;;;;;;;15.05;58.79;95999.72;5030211;28;20446;-73
2021/09/07 01:54:46;;;;;;;13.23;8.20;;;;;;;15.25;58.70;95999.81;5037360;28;20489;-72
2021/09/07 01:57:14;;;;;;;13.53;8.13;;;;;;;15.19;58.20;96002.72;5049810;28;20458;-72
2021/09/07 01:59:42;;;;;;;14.63;8.27;;;;;;;15.05;58.32;95989.16;5050268;28;20439;-74
2021/09/07 02:02:09;;;;;;;14.13;8.90;;;;;;;15.17;58.32;96002.97;5036167;28;21076;-73
2021/09/07 02:04:36;;;;;;;11.83;7.73;;;;;;;15.14;58.84;96003.47;5049315;28;20868;-72
2021/09/07 02:07:05;;;;;;;10.27;7.57;;;;;;;15.14;58.60;96000.84;5049566;28;20711;-74
2021/09/07 02:09:32;;;;;;;9.43;6.47;;;;;;;14.90;59.14;95999.66;5046145;28;20448;-72
2021/09/07 02:11:59;;;;;;;13.07;7.03;;;;;;;14.83;60.03;95996.47;5039324;28;20817;-72
2021/09/07 02:14:29;;;;;;;13.87;6.53;;;;;;;14.89;60.04;95997.28;5049965;28;20474;-72
2021/09/07 02:16:57;;;;;;;9.87;6.60;;;;;;;14.83;59.66;95985.09;5044822;28;20444;-69
2021/09/07 02:19:24;;;;;;;10.77;6.50;;;;;;;14.99;59.21;95994.69;5050419;28;20443;-71
2021/09/07 02:21:52;;;;;;;17.43;6.50;;;;;;;15.03;59.58;95988.66;5039773;28;20809;-71
2021/09/07 02:24:20;;;;;;;10.43;6.20;;;;;;;14.93;59.10;95987.78;5058088;28;20443;-71
2021/09/07 02:26:47;;;;;;;7.90;6.57;;;;;;;14.93;59.79;95985.16;5049199;28;20518;-71
2021/09/07 02:29:14;;;;;;;9.37;6.73;;;;;;;14.94;59.55;95987.53;5050224;28;20435;-69
2021/09/07 02:31:41;;;;;;;11.00;6.80;;;;;;;14.97;59.57;95987.03;5048930;28;20964;-70
2021/09/07 02:34:08;;;;;;;12.53;6.57;;;;;;;14.84;60.10;95974.28;5049190;28;20593;-71
2021/09/07 02:36:37;;;;;;;9.97;5.97;;;;;;;14.83;60.33;95980.63;5049441;28;20485;-70
2021/09/07 02:39:04;;;;;;;14.90;6.13;;;;;;;14.56;60.82;95964.06;5036095;28;20509;-71
2021/09/07 02:41:31;;;;;;;11.20;6.93;;;;;;;14.64;60.48;95973.34;5048318;28;20435;-72
2021/09/07 02:44:01;;;;;;;8.00;6.47;;;;;;;14.82;60.68;95984.28;5044666;28;20883;-70
2021/09/07 02:46:30;;;;;;;10.17;7.10;;;;;;;14.87;60.38;95991.47;5059117;28;20449;-72
2021/09/07 02:48:57;;;;;;;10.20;7.60;;;;;;;14.87;60.41;95986.97;5057593;28;20477;-70
2021/09/07 02:51:24;;;;;;;13.90;7.33;;;;;;;14.82;59.88;95965.81;5044922;28;20458;-71
2021/09/07 02:53:52;;;;;;;9.40;6.87;;;;;;;14.92;60.79;95994.94;5039368;28;20475;-70
2021/09/07 02:56:19;;;;;;;10.63;7.10;;;;;;;14.92;60.59;95994.94;5036039;28;21038;-70
2021/09/07 02:58:47;;;;;;;9.77;7.20;;;;;;;14.77;60.88;95986.91;5049603;28;20949;-71
2021/09/07 03:01:15;;;;;;;11.70;7.50;;;;;;;15.11;60.48;95988.16;5048666;28;20482;-72
2021/09/07 03:03:46;;;;;;;12.50;7.67;;;;;;;15.07;60.67;95996.84;5038478;28;20454;-71
2021/09/07 03:06:13;;;;;;;11.20;7.77;;;;;;;14.89;61.64;95992.78;5042993;28;20440;-70
2021/09/07 03:08:43;;;;;;;10.23;8.00;;;;;;;15.05;61.17;95983.88;5040585;28;20508;-71
2021/09/07 03:11:10;;;;;;;13.73;8.20;;;;;;;15.05;60.51;95994.44;5048548;28;20512;-71
2021/09/07 03:13:38;;;;;;;14.80;8.20;;;;;;;15.14;60.37;95987.63;5053770;28;20478;-71
2021/09/07 03:16:05;;;;;;;12.17;8.00;;;;;;;15.01;60.94;95985.47;5041112;28;20466;-71
2021/09/07 03:18:33;;;;;;;12.17;8.53;;;;;;;15.10;60.62;95980.50;5037725;28;20521;-71
2021/09/07 03:21:01;;;;;;;10.17;8.37;;;;;;;14.96;61.26;95980.16;5041281;28;20950;-71
2021/09/07 03:23:28;;;;;;;16.57;8.10;;;;;;;15.08;60.92;95987.88;5046837;28;20435;-72
2021/09/07 03:25:55;;;;;;;10.33;8.07;;;;;;;14.94;61.70;95987.53;5042713;28;20450;-72
2021/09/07 03:28:23;;;;;;;12.33;8.23;;;;;;;15.02;61.34;95978.34;5050575;28;20557;-73
2021/09/07 03:30:51;;;;;;;12.93;9.03;;;;;;;15.06;61.67;95977.56;5041185;28;20824;-71
2021/09/07 03:33:19;;;;;;;13.87;8.97;;;;;;;14.96;61.42;95979.38;5052384;28;20439;-72
2021/09/07 03:35:47;;;;;;;12.03;8.37;;;;;;;14.99;61.42;95974.38;5052329;28;20447;-72
2021/09/07 03:38:13;;;;;;;11.67;8.47;;;;;;;14.99;61.67;95968.28;5052496;28;20813;-71
2021/09/07 03:40:41;;;;;;;12.13;9.23;;;;;;;15.04;60.70;95981.50;5051617;28;20591;-72
2021/09/07 03:43:08;;;;;;;14.93;9.60;;;;;;;15.03;61.15;95983.38;5052319;28;20473;-73
2021/09/07 03:45:40;;;;;;;14.33;9.40;;;;;;;14.95;61.19;95978.56;5051689;28;20868;-72
2021/09/07 03:48:07;;;;;;;13.80;9.03;;;;;;;14.99;61.04;95992.84;5052167;28;20451;-70
2021/09/07 03:50:34;;;;;;;13.30;9.00;;;;;;;14.98;60.58;95993.88;5037509;28;20454;-71
2021/09/07 03:53:03;;;;;;;17.73;9.97;;;;;;;14.92;60.61;95976.47;5052415;28;20493;-71
2021/09/07 03:55:30;;;;;;;15.33;9.53;;;;;;;14.95;60.54;95989.13;5051028;28;20486;-71
2021/09/07 03:58:00;;;;;;;13.23;8.50;;;;;;;14.99;60.07;95990.22;5039281;28;20465;-71
2021/09/07 04:00:28;;;;;;;17.00;8.30;;;;;;;14.93;60.13;95979.88;5047614;28;20441;-74
2021/09/07 04:02:58;;;;;;;15.80;9.00;;;;;;;14.97;60.04;95980.94;5042168;28;20448;-73
2021/09/07 04:05:27;;;;;;;12.53;7.37;;;;;;;14.94;59.97;95976.97;5047566;28;20465;-72
2021/09/07 04:07:55;;;;;;;16.03;7.27;;;;;;;14.89;60.61;95987.50;5052636;28;20482;-70
2021/09/07 04:10:24;;;;;;;11.93;6.87;;;;;;;14.84;60.38;95976.94;5051826;28;20435;-71
2021/09/07 04:12:51;;;;;;;11.97;6.27;;;;;;;15.00;60.23;95996.25;5051365;28;20445;-72
2021/09/07 04:15:18;;;;;;;11.63;6.70;;;;;;;14.76;60.51;96001.13;5052303;28;20517;-70
2021/09/07 04:17:47;;;;;;;9.20;6.43;;;;;;;14.82;60.54;95994.06;5038318;28;20440;-69
2021/09/07 04:20:20;;;;;;;13.97;6.37;;;;;;;14.90;60.36;96007.59;5040298;28;20476;-70
2021/09/07 04:22:48;;;;;;;11.40;6.67;;;;;;;14.88;60.55;96008.88;5056341;28;20471;-71
2021/09/07 04:25:16;;;;;;;9.77;6.57;;;;;;;14.80;60.98;95996.94;5054114;28;20470;-70
2021/09/07 04:27:43;;;;;;;16.00;7.27;;;;;;;14.80;60.93;96010.16;5052450;28;20442;-71
2021/09/07 04:30:12;;;;;;;11.57;7.10;;;;;;;14.72;61.60;96004.56;5051919;28;20447;-71
2021/09/07 04:32:39;;;;;;;16.10;8.43;;;;;;;14.99;60.96;96013.16;5051816;28;20518;-70
2021/09/07 04:35:11;;;;;;;20.57;9.60;;;;;;;14.99;60.04;96013.97;5050316;28;20486;-71
2021/09/07 04:37:38;;;;;;;18.33;9.57;;;;;;;14.98;60.19;96022.91;5048171;28;21064;-71
2021/09/07 04:40:06;;;;;;;15.03;8.67;;;;;;;14.86;60.17;96022.34;5045523;28;20634;-73
2021/09/07 04:42:32;;;;;;;11.13;7.10;;;;;;;14.55;60.98;95998.63;5049004;28;20467;-70
2021/09/07 04:45:01;;;;;;;14.50;7.57;;;;;;;14.52;61.84;96005.22;5049844;28;20434;-71
2021/09/07 04:47:32;;;;;;;11.60;7.30;;;;;;;14.60;62.22;96012.66;5051121;28;20439;-69
2021/09/07 04:50:00;;;;;;;13.17;7.27;;;;;;;14.85;62.09;96031.28;5039054;28;20522;-68
2021/09/07 04:52:27;;;;;;;14.83;10.13;;;;;;;14.99;61.23;96021.88;5044488;28;20954;-75
2021/09/07 04:54:54;;;;;;;40.33;26.47;;;;;;;14.88;60.68;96007.03;5039395;28;20462;-74
2021/09/07 04:57:21;;;;;;;13.77;6.97;;;;;;;14.90;59.33;96025.25;5035695;28;20543;-74
2021/09/07 04:59:48;;;;;;;10.00;5.83;;;;;;;14.91;59.19;96019.72;5031329;28;20498;-72
2021/09/07 05:02:15;;;;;;;13.17;6.13;;;;;;;14.51;59.68;96026.53;5045023;28;20451;-73
2021/09/07 05:04:42;;;;;;;9.93;5.63;;;;;;;14.93;58.61;96016.81;5044580;28;20445;-69
2021/09/07 05:07:09;;;;;;;10.03;6.50;;;;;;;14.87;58.68;96026.53;5043232;28;20439;-72
2021/09/07 05:09:36;;;;;;;11.70;7.27;;;;;;;15.00;58.96;96022.66;5050634;28;20454;-69
2021/09/07 05:12:03;;;;;;;12.83;7.30;;;;;;;15.04;58.92;96035.09;5040365;28;20467;-69
2021/09/07 05:14:30;;;;;;;11.00;7.00;;;;;;;15.17;58.76;96028.56;5033397;28;20501;-70
2021/09/07 05:16:57;;;;;;;12.90;6.57;;;;;;;15.18;58.05;96030.19;5042234;28;20482;-69
2021/09/07 05:19:24;;;;;;;66.67;45.27;;;;;;;15.47;57.23;96033.25;5042513;28;20454;-71
2021/09/07 05:21:51;;;;;;;243.77;206.17;;;;;;;15.49;58.08;96033.78;5046358;28;20819;-71
2021/09/07 05:24:19;;;;;;;17.33;10.80;;;;;;;15.53;57.37;96032.22;5031152;28;20444;-70
2021/09/07 05:26:46;;;;;;;10.40;5.87;;;;;;;15.63;56.79;96034.88;5046476;28;20446;-70
2021/09/07 05:29:13;;;;;;;10.63;5.13;;;;;;;15.47;57.22;96035.88;5040257;28;20439;-71
2021/09/07 05:31:40;;;;;;;11.00;5.30;;;;;;;15.61;57.44;96042.28;5032642;28;20534;-70
2021/09/07 05:34:07;;;;;;;15.80;6.13;;;;;;;15.45;56.84;96035.34;5048234;28;21024;-70
2021/09/07 05:36:34;;;;;;;11.63;5.40;;;;;;;15.74;56.66;96039.16;5036936;28;20427;-70
2021/09/07 05:39:01;;;;;;;8.53;5.10;;;;;;;15.75;56.45;96044.19;5036927;28;20847;-70
2021/09/07 05:41:28;;;;;;;10.47;5.77;;;;;;;15.69;56.02;96025.94;5042673;28;20443;-70
2021/09/07 05:43:55;;;;;;;9.23;5.30;;;;;;;15.77;56.29;96038.63;5045677;28;20448;-70
2021/09/07 05:46:22;;;;;;;9.93;5.67;;;;;;;15.78;56.67;96041.00;5040279;28;20443;-69
2021/09/07 05:48:49;;;;;;;12.77;5.57;;;;;;;15.74;56.97;96031.22;5033526;28;20813;-70
2021/09/07 05:51:16;;;;;;;10.77;6.03;;;;;;;15.92;57.32;96039.47;5030076;28;20443;-70
2021/09/07 05:53:43;;;;;;;11.10;5.50;;;;;;;16.00;56.08;96043.47;5043973;28;20446;-72
2021/09/07 05:56:11;;;;;;;12.93;5.83;;;;;;;15.92;56.99;96041.31;5029854;28;20482;-70
2021/09/07 05:58:38;;;;;;;15.13;5.97;;;;;;;15.76;57.88;96031.78;5030100;28;20444;-69
2021/09/07 06:01:09;;;;;;;8.20;5.63;;;;;;;15.88;57.28;96035.75;5029622;28;20440;-70
2021/09/07 06:03:36;;;;;;;9.30;6.30;;;;;;;16.00;57.23;96043.47;5040974;28;20489;-70
2021/09/07 06:06:04;;;;;;;13.70;6.67;;;;;;;15.92;57.16;96030.75;5035612;28;20795;-72
2021/09/07 06:08:31;;;;;;;12.67;6.67;;;;;;;16.13;57.50;96033.16;5040970;28;20472;-69
2021/09/07 06:10:58;;;;;;;13.97;6.30;;;;;;;16.14;57.49;96033.97;5043600;28;20883;-72
2021/09/07 06:13:25;;;;;;;10.77;6.43;;;;;;;16.04;57.29;96033.94;5029788;28;20452;-69
2021/09/07 06:15:52;;;;;;;10.37;6.27;;;;;;;16.37;56.96;96033.47;5042206;28;20482;-69
2021/09/07 06:18:19;;;;;;;10.80;6.57;;;;;;;16.46;56.98;96031.88;5030003;28;20451;-70
2021/09/07 06:20:46;;;;;;;9.43;6.00;;;;;;;16.62;56.84;96041.47;5029892;28;20443;-69
2021/09/07 06:23:13;;;;;;;10.70;6.07;;;;;;;16.41;57.04;96026.59;5043623;28;20450;-73
2021/09/07 06:25:40;;;;;;;9.50;5.70;;;;;;;16.74;56.92;96035.88;5037798;28;20778;-73
2021/09/07 06:28:07;;;;;;;12.23;6.17;;;;;;;16.68;57.14;96023.69;5035738;28;21024;-72
2021/09/07 06:30:34;;;;;;;10.23;5.80;;;;;;;16.99;56.62;96031.34;5029164;28;21061;-71
2021/09/07 06:33:01;;;;;;;10.57;6.33;;;;;;;16.99;56.52;96041.94;5042141;28;20459;-71
2021/09/07 06:35:29;;;;;;;13.40;6.03;;;;;;;17.18;56.22;96024.44;5044689;28;20479;-71
2021/09/07 06:37:56;;;;;;;10.60;6.27;;;;;;;17.20;55.32;96021.50;5040491;28;20436;-70
2021/09/07 06:40:23;;;;;;;9.63;6.23;;;;;;;16.87;55.80;96038.78;5049526;28;20500;-70
2021/09/07 06:42:50;;;;;;;12.73;6.07;;;;;;;17.05;56.44;96032.94;5048986;28;20475;-71
2021/09/07 06:45:35;;;;;;;12.83;6.27;;;;;;;17.32;55.75;96024.66;5043696;28;20832;-70
2021/09/07 06:48:02;;;;;;;11.77;5.67;;;;;;;17.47;55.50;96019.34;5032199;28;20447;-72
2021/09/07 06:50:29;;;;;;;9.47;6.57;;;;;;;17.61;55.48;96022.97;5033445;28;20993;-71
2021/09/07 06:52:56;;;;;;;10.43;5.80;;;;;;;17.56;55.28;96035.47;5033747;28;20479;-71
2021/09/07 06:55:23;;;;;;;17.17;6.40;;;;;;;17.75;56.05;96028.50;5046572;28;20493;-71
2021/09/07 06:57:50;;;;;;;10.37;6.30;;;;;;;17.57;56.62;96026.47;5053571;28;20435;-69
2021/09/07 07:00:17;;;;;;;13.77;7.17;;;;;;;17.88;56.21;96025.25;5055292;28;20443;-71
2021/09/07 07:02:46;;;;;;;12.53;6.20;;;;;;;18.03;54.99;96019.84;5053960;28;20435;-71
2021/09/07 07:05:15;;;;;;;7.83;6.30;;;;;;;18.28;54.44;96027.66;5052489;28;20478;-71
2021/09/07 07:07:42;;;;;;;9.17;6.60;;;;;;;18.14;54.24;96021.38;5051152;28;20435;-70
2021/09/07 07:10:09;;;;;;;13.10;7.03;;;;;;;18.27;53.99;96020.75;5033323;28;20541;-71
2021/09/07 07:12:37;;;;;;;13.83;7.57;;;;;;;18.26;53.77;96021.84;5033463;28;20438;-70
2021/09/07 07:15:05;;;;;;;12.50;8.30;;;;;;;18.29;53.90;96020.47;5053565;28;20474;-72
2021/09/07 07:17:33;;;;;;;12.60;8.00;;;;;;;18.41;53.48;96011.13;5042102;28;20439;-71
2021/09/07 07:20:00;;;;;;;9.00;7.10;;;;;;;18.61;53.43;96029.56;5050403;28;20451;-71
2021/09/07 07:22:27;;;;;;;10.03;7.10;;;;;;;18.69;52.65;96021.00;5052493;28;20447;-72
2021/09/07 07:24:54;;;;;;;10.50;7.17;;;;;;;18.64;51.69;96029.00;5051009;28;20482;-72
2021/09/07 07:27:22;;;;;;;10.13;6.10;;;;;;;18.55;50.14;96025.38;5040379;28;20482;-70
2021/09/07 07:29:49;;;;;;;8.17;6.77;;;;;;;18.81;50.50;96031.25;5038637;28;20439;-71
2021/09/07 07:32:16;;;;;;;12.90;6.33;;;;;;;18.81;49.30;96025.94;5031292;28;20889;-71
2021/09/07 07:34:43;;;;;;;7.23;6.00;;;;;;;18.80;48.64;96027.81;5033423;28;20550;-71
2021/09/07 07:37:10;;;;;;;13.83;7.00;;;;;;;18.90;48.79;96035.66;5032550;28;20551;-71
2021/09/07 07:39:37;;;;;;;8.90;6.00;;;;;;;18.90;47.70;96030.34;5043422;28;20473;-71
2021/09/07 07:42:04;;;;;;;14.00;6.60;;;;;;;18.87;48.91;96033.59;5037738;28;20228;-72
2021/09/07 07:44:31;;;;;;;8.10;5.30;;;;;;;18.89;46.13;96018.16;5052558;28;20408;-71
2021/09/07 07:46:58;;;;;;;11.17;5.77;;;;;;;19.18;46.21;96024.25;5051904;28;20442;-73
2021/09/07 07:49:25;;;;;;;7.73;5.00;;;;;;;19.40;44.82;96028.28;5046797;28;20542;-70
2021/09/07 07:51:52;;;;;;;8.07;6.20;;;;;;;19.60;45.61;96034.16;5044827;28;20439;-72
2021/09/07 07:54:19;;;;;;;5.47;4.90;;;;;;;19.93;44.16;96037.75;5052021;28;20223;-70
2021/09/07 07:56:46;;;;;;;9.10;5.60;;;;;;;19.88;44.00;96022.66;5052403;28;20220;-73
2021/09/07 07:59:13;;;;;;;7.47;5.57;;;;;;;20.04;43.73;96034.69;5034476;28;20299;-72
2021/09/07 08:01:40;;;;;;;8.37;5.33;;;;;;;20.02;42.77;96039.50;5040668;28;20199;-70
2021/09/07 08:04:07;;;;;;;6.57;4.57;;;;;;;20.00;42.73;96031.00;5051998;28;20485;-73
2021/09/07 08:06:35;;;;;;;13.67;5.50;;;;;;;20.15;43.27;96028.13;5051944;28;20189;-70
2021/09/07 08:09:02;;;;;;;9.37;5.23;;;;;;;19.78;42.44;96030.00;5039031;28;20205;-72
2021/09/07 08:11:29;;;;;;;11.20;5.30;;;;;;;19.68;42.30;96030.09;5051611;28;20289;-72
2021/09/07 08:13:56;;;;;;;8.70;5.40;;;;;;;19.65;42.86;96030.69;5040116;28;20300;-71
2021/09/07 08:16:23;;;;;;;9.50;5.30;;;;;;;19.75;42.37;96041.19;5047853;28;20627;-71
2021/09/07 08:18:51;;;;;;;7.30;5.00;;;;;;;19.88;42.67;96024.53;5040824;28;20211;-73
2021/09/07 08:21:18;;;;;;;5.33;4.80;;;;;;;19.94;43.50;96018.84;5051999;28;20231;-71
2021/09/07 08:23:45;;;;;;;6.27;4.63;;;;;;;19.58;41.20;96028.34;5037710;28;20201;-71
2021/09/07 08:26:12;;;;;;;5.67;4.40;;;;;;;19.81;40.87;96024.09;5050717;28;20662;-71
2021/09/07 08:28:40;;;;;;;8.33;4.53;;;;;;;19.86;40.74;96032.00;5050368;28;20191;-70
2021/09/07 08:31:09;;;;;;;7.70;4.07;;;;;;;20.03;42.35;96042.94;5040346;28;20193;-71
2021/09/07 08:33:35;;;;;;;7.40;4.40;;;;;;;19.61;40.76;95997.75;5034619;28;20224;-70
2021/09/07 08:36:03;;;;;;;8.60;4.60;;;;;;;20.12;41.14;96028.72;5051468;28;20678;-71
2021/09/07 08:38:30;;;;;;;8.33;4.90;;;;;;;20.37;41.89;96022.25;5037540;28;20205;-70
2021/09/07 08:40:58;;;;;;;5.67;3.63;;;;;;;20.39;40.49;96024.63;5043560;28;20185;-72
2021/09/07 08:43:26;;;;;;;4.97;4.00;;;;;;;20.52;41.46;96024.69;5045149;28;20616;-71
2021/09/07 08:45:57;;;;;;;8.77;3.90;;;;;;;20.60;38.70;96037.34;5037918;28;20342;-71
2021/09/07 08:48:25;;;;;;;5.77;3.00;;;;;;;20.70;39.07;96021.22;5051207;28;20272;-70
2021/09/07 08:50:54;;;;;;;6.93;3.57;;;;;;;20.70;39.56;96015.88;5046613;28;20198;-69
2021/09/07 08:53:28;;;;;;;9.03;3.07;;;;;;;20.72;37.62;96000.41;5042638;28;20208;-71
2021/09/07 08:55:55;;;;;;;6.17;3.27;;;;;;;20.70;36.73;96021.22;5033184;28;20225;-70
2021/09/07 08:58:23;;;;;;;5.33;3.00;;;;;;;21.03;38.02;96025.47;5041179;28;20675;-70
2021/09/07 09:00:50;;;;;;;3.30;2.63;;;;;;;21.29;37.28;96001.00;5036647;28;20729;-71
2021/09/07 09:03:18;;;;;;;7.20;3.00;;;;;;;21.30;36.95;96007.91;5051036;28;20678;-70
2021/09/07 09:05:49;;;;;;;5.30;2.93;;;;;;;20.96;36.68;96019.72;5050418;28;20192;-69
2021/09/07 09:08:18;;;;;;;5.97;2.80;;;;;;;20.49;37.71;96014.59;5038679;28;20204;-70
2021/09/07 09:10:46;;;;;;;4.97;3.00;;;;;;;19.92;38.29;95993.63;5049890;28;20299;-70
2021/09/07 09:13:21;;;;;;;5.93;3.17;;;;;;;20.72;38.88;96003.06;5036920;28;20262;-71
2021/09/07 09:16:03;;;;;;;6.53;3.10;;;;;;;20.97;38.98;95994.63;5042305;28;20232;-70
2021/09/07 09:18:37;;;;;;;7.10;3.03;;;;;;;21.45;37.83;95989.75;5043323;28;20228;-69
2021/09/07 09:21:22;;;;;;;4.70;3.10;;;;;;;21.45;35.86;95991.63;5054796;28;20222;-71
2021/09/07 09:24:26;;;;;;;6.50;3.00;;;;;;;21.29;35.06;95990.34;5037935;28;20199;-71
2021/09/07 09:26:57;;;;;;;5.13;3.20;;;;;;;21.23;35.42;95991.53;5050528;28;20212;-71
2021/09/07 09:29:28;;;;;;;5.87;3.97;;;;;;;21.58;35.66;95982.84;5039872;28;20197;-72
2021/09/07 09:31:59;;;;;;;5.47;2.97;;;;;;;21.52;34.74;95979.47;5031544;28;20220;-71
2021/09/07 09:34:27;;;;;;;5.60;2.87;;;;;;;21.86;34.70;95984.41;5041641;28;20360;-69
2021/09/07 09:37:05;;;;;;;5.43;3.10;;;;;;;21.83;34.48;95990.31;5050135;28;20208;-71
2021/09/07 09:39:36;;;;;;;7.77;2.73;;;;;;;22.03;34.20;95976.53;5051324;28;20196;-71
2021/09/07 09:42:04;;;;;;;6.20;2.70;;;;;;;21.35;33.86;95957.19;5036931;28;20239;-68
2021/09/07 09:44:31;;;;;;;6.63;3.03;;;;;;;21.54;34.33;95976.50;5051758;28;20189;-71
2021/09/07 09:46:58;;;;;;;9.03;3.00;;;;;;;22.00;34.62;95980.63;5039346;28;20663;-70
2021/09/07 09:49:27;;;;;;;5.00;2.80;;;;;;;22.49;35.20;95970.94;5049962;28;20246;-71
2021/09/07 09:52:06;;;;;;;6.40;2.63;;;;;;;22.77;34.29;95973.19;5050658;28;20224;-70
2021/09/07 09:54:35;;;;;;;7.10;3.10;;;;;;;22.86;34.33;95975.94;5036769;28;20202;-69
2021/09/07 09:57:04;;;;;;;4.53;2.80;;;;;;;23.10;33.28;95966.44;5050751;28;20239;-71
2021/09/07 09:59:32;;;;;;;6.93;2.60;;;;;;;22.92;33.06;95970.13;5030955;28;20635;-71
2021/09/07 10:02:01;;;;;;;4.07;2.63;;;;;;;22.98;32.39;95952.88;5041565;28;20219;-71
2021/09/07 10:04:30;;;;;;;4.47;2.67;;;;;;;22.61;33.00;95979.25;5032642;28;20629;-71
2021/09/07 10:06:57;;;;;;;5.00;3.00;;;;;;;22.66;33.41;95971.84;5030110;28;20232;-71
2021/09/07 10:09:26;;;;;;;4.90;2.70;;;;;;;22.33;34.55;95962.50;5044110;28;20188;-70
2021/09/07 10:12:02;;;;;;;6.33;3.20;;;;;;;22.49;34.07;95960.25;5038583;28;20189;-70
2021/09/07 10:14:33;;;;;;;7.23;2.87;;;;;;;22.78;34.18;95952.59;5049887;28;20199;-71
2021/09/07 10:17:32;;;;;;;5.07;2.93;;;;;;;23.00;33.24;95947.22;5042762;28;20681;-69
2021/09/07 10:20:04;;;;;;;4.97;2.80;;;;;;;22.91;33.94;95949.84;5046838;28;20287;-69
2021/09/07 10:25:58;;;;;;;6.90;2.73;;;;;;;23.23;32.25;95955.97;5027444;28;20208;-71
2021/09/07 10:28:43;;;;;;;4.33;3.03;;;;;;;23.08;33.22;95952.59;5049242;28;20212;-71
2021/09/07 10:31:22;;;;;;;6.60;2.97;;;;;;;22.89;32.32;95943.22;5049624;28;20208;-71
2021/09/07 10:33:52;;;;;;;6.67;2.93;;;;;;;23.17;32.66;95946.50;5049531;28;20292;-70
2021/09/07 10:36:22;;;;;;;4.63;2.60;;;;;;;23.42;32.33;95951.16;5049045;28;20254;-70
2021/09/07 10:38:51;;;;;;;6.67;2.73;;;;;;;23.64;31.14;95943.84;5031908;28;20201;-70
2021/09/07 10:41:34;;;;;;;4.43;2.80;;;;;;;23.57;30.59;95948.88;5040491;28;20189;-70
2021/09/07 10:44:05;;;;;;;5.27;3.20;;;;;;;23.80;31.06;95936.13;5049891;28;20204;-71
2021/09/07 10:46:58;;;;;;;4.70;2.50;;;;;;;23.73;29.81;95935.81;5050166;28;20200;-70
2021/09/07 10:49:46;;;;;;;3.70;2.60;;;;;;;23.82;29.65;95941.97;5051142;28;20204;-70
2021/09/07 10:52:27;;;;;;;6.97;3.10;;;;;;;23.28;30.03;95939.78;5049197;28;20200;-73
2021/09/07 10:57:44;;;;;;;9.03;5.33;;;;;;;23.97;30.68;95933.47;5035071;28;20327;-73
2021/09/07 11:00:13;;;;;;;4.53;2.87;;;;;;;23.48;30.24;95928.53;5051008;28;20200;-74
2021/09/07 11:02:42;;;;;;;8.40;7.47;;;;;;;23.24;32.04;95925.44;5050678;28;20189;-72
2021/09/07 11:08:02;;;;;;;5.17;2.50;;;;;;;24.10;28.87;95919.94;5049657;28;20200;-71
2021/09/07 11:10:32;;;;;;;6.00;4.00;;;;;;;24.44;29.93;95929.06;5037829;28;20203;-75
2021/09/07 11:13:02;;;;;;;5.27;3.60;;;;;;;24.39;29.70;95897.09;5047948;28;20219;-73
2021/09/07 11:15:34;;;;;;;53.70;41.50;;;;;;;24.55;30.01;95904.31;5049020;28;20264;-72
2021/09/07 11:18:04;;;;;;;3.40;2.60;;;;;;;24.68;30.66;95903.34;5033020;28;20698;-73
2021/09/07 11:20:36;;;;;;;5.87;3.63;;;;;;;24.90;29.34;95913.84;5049593;28;20193;-73
2021/09/07 11:23:12;;;;;;;7.57;3.83;;;;;;;24.66;29.31;95900.19;5049306;28;20201;-73
2021/09/07 11:25:41;;;;;;;7.93;5.63;;;;;;;24.25;28.90;95910.66;5049344;28;20273;-73
2021/09/07 11:28:12;;;;;;;6.40;2.80;;;;;;;23.80;29.54;95899.47;5049224;28;20207;-75
2021/09/07 11:30:42;;;;;;;4.40;2.80;;;;;;;24.65;30.49;95898.59;5042067;28;20205;-73
2021/09/07 11:33:23;;;;;;;8.70;4.07;;;;;;;24.71;31.08;95893.88;5043872;28;20607;-73
2021/09/07 11:35:55;;;;;;;7.53;2.93;;;;;;;24.84;30.24;95880.28;5052254;28;20223;-71
2021/09/07 11:38:31;;;;;;;22.23;17.83;;;;;;;24.96;30.26;95875.00;5038375;28;20238;-71
2021/09/07 11:41:00;;;;;;;3.70;2.57;;;;;;;25.22;29.72;95874.13;5032461;28;20681;-73
2021/09/07 11:43:38;;;;;;;3.93;2.33;;;;;;;24.89;28.65;95887.34;5047009;28;20309;-73
2021/09/07 11:46:13;;;;;;;9.97;5.60;;;;;;;24.63;27.90;95889.31;5052228;28;20231;-73